sensor_id;sensor_type;location;lat;lon;timestamp;pressure;altitude;pressure_sealevel;temperature;humidity
12468;BME280;57850;52.922;6.256;2023-03-31T00:00:51;100427.47;;;13.19;100.00
12468;BME280;57850;52.922;6.256;2023-03-31T00:03:22;100418.13;;;13.15;100.00
12468;BME280;57850;52.922;6.256;2023-03-31T00:05:49;100409.81;;;13.22;100.00
12468;BME280;57850;52.922;6.256;2023-03-31T00:08:17;100404.50;;;13.24;100.00
12468;BME280;57850;52.922;6.256;2023-03-31T00:10:47;100389.03;;;13.35;100.00
12468;BME280;57850;52.922;6.256;2023-03-31T00:13:14;100392.34;;;13.23;100.00
12468;BME280;57850;52.922;6.256;2023-03-31T00:15:40;100387.75;;;13.11;100.00
12468;BME280;57850;52.922;6.256;2023-03-31T00:18:07;100398.03;;;12.98;100.00
12468;BME280;57850;52.922;6.256;2023-03-31T00:20:34;100393.53;;;13.00;100.00
12468;BME280;57850;52.922;6.256;2023-03-31T00:23:02;100380.59;;;12.97;100.00
12468;BME280;57850;52.922;6.256;2023-03-31T00:25:35;100374.72;;;12.94;100.00
12468;BME280;57850;52.922;6.256;2023-03-31T00:28:06;100375.03;;;13.03;100.00
12468;BME280;57850;52.922;6.256;2023-03-31T00:30:32;100385.31;;;12.90;100.00
12468;BME280;57850;52.922;6.256;2023-03-31T00:32:59;100362.69;;;12.89;100.00
12468;BME280;57850;52.922;6.256;2023-03-31T00:35:26;100364.75;;;12.67;100.00
12468;BME280;57850;52.922;6.256;2023-03-31T00:37:52;100356.91;;;12.67;100.00
12468;BME280;57850;52.922;6.256;2023-03-31T00:40:22;100348.94;;;12.69;100.00
12468;BME280;57850;52.922;6.256;2023-03-31T00:42:49;100343.31;;;12.44;100.00
12468;BME280;57850;52.922;6.256;2023-03-31T00:45:35;100321.44;;;12.62;100.00
12468;BME280;57850;52.922;6.256;2023-03-31T00:48:06;100333.34;;;12.67;100.00
12468;BME280;57850;52.922;6.256;2023-03-31T00:50:39;100326.09;;;12.40;100.00
12468;BME280;57850;52.922;6.256;2023-03-31T00:53:11;100324.28;;;12.07;100.00
12468;BME280;57850;52.922;6.256;2023-03-31T00:55:42;100292.97;;;12.23;100.00
12468;BME280;57850;52.922;6.256;2023-03-31T00:58:11;100270.00;;;12.28;100.00
12468;BME280;57850;52.922;6.256;2023-03-31T01:00:41;100266.31;;;11.99;100.00
12468;BME280;57850;52.922;6.256;2023-03-31T01:03:08;100254.78;;;11.86;100.00
12468;BME280;57850;52.922;6.256;2023-03-31T01:05:43;100236.63;;;11.83;100.00
12468;BME280;57850;52.922;6.256;2023-03-31T01:08:17;100227.94;;;11.82;100.00
12468;BME280;57850;52.922;6.256;2023-03-31T01:10:51;100243.03;;;11.77;100.00
12468;BME280;57850;52.922;6.256;2023-03-31T01:13:19;100213.34;;;11.78;100.00
12468;BME280;57850;52.922;6.256;2023-03-31T01:15:48;100206.03;;;11.68;100.00
12468;BME280;57850;52.922;6.256;2023-03-31T01:18:16;100196.50;;;11.67;100.00
12468;BME280;57850;52.922;6.256;2023-03-31T01:21:02;100190.56;;;11.63;100.00
12468;BME280;57850;52.922;6.256;2023-03-31T01:23:49;100183.66;;;11.62;100.00
12468;BME280;57850;52.922;6.256;2023-03-31T01:26:43;100166.72;;;11.71;100.00
12468;BME280;57850;52.922;6.256;2023-03-31T01:32:40;100175.31;;;11.73;100.00
12468;BME280;57850;52.922;6.256;2023-03-31T01:35:33;100165.28;;;11.81;100.00
12468;BME280;57850;52.922;6.256;2023-03-31T01:41:29;100167.75;;;11.67;100.00
12468;BME280;57850;52.922;6.256;2023-03-31T01:44:05;100159.88;;;11.84;100.00
12468;BME280;57850;52.922;6.256;2023-03-31T01:46:35;100158.13;;;11.85;100.00
12468;BME280;57850;52.922;6.256;2023-03-31T01:49:13;100151.13;;;11.85;100.00
12468;BME280;57850;52.922;6.256;2023-03-31T01:51:49;100149.34;;;12.03;100.00
12468;BME280;57850;52.922;6.256;2023-03-31T01:54:23;100158.44;;;11.78;100.00
12468;BME280;57850;52.922;6.256;2023-03-31T01:56:56;100146.22;;;11.79;100.00
12468;BME280;57850;52.922;6.256;2023-03-31T01:59:27;100128.69;;;11.81;100.00
12468;BME280;57850;52.922;6.256;2023-03-31T02:01:57;100123.03;;;11.73;100.00
12468;BME280;57850;52.922;6.256;2023-03-31T02:04:29;100111.34;;;11.80;100.00
12468;BME280;57850;52.922;6.256;2023-03-31T02:07:02;100112.59;;;11.73;100.00
12468;BME280;57850;52.922;6.256;2023-03-31T02:09:33;100110.66;;;11.76;100.00
12468;BME280;57850;52.922;6.256;2023-03-31T02:12:03;100095.31;;;11.86;100.00
12468;BME280;57850;52.922;6.256;2023-03-31T02:14:31;100101.06;;;11.93;100.00
12468;BME280;57850;52.922;6.256;2023-03-31T02:17:01;100107.56;;;11.86;100.00
12468;BME280;57850;52.922;6.256;2023-03-31T02:19:30;100090.63;;;11.93;100.00
12468;BME280;57850;52.922;6.256;2023-03-31T02:21:58;100084.41;;;11.78;100.00
12468;BME280;57850;52.922;6.256;2023-03-31T02:24:28;100084.72;;;11.89;100.00
12468;BME280;57850;52.922;6.256;2023-03-31T02:27:03;100078.31;;;11.95;100.00
12468;BME280;57850;52.922;6.256;2023-03-31T02:29:33;100063.88;;;11.88;100.00
12468;BME280;57850;52.922;6.256;2023-03-31T02:32:03;100070.97;;;12.01;100.00
12468;BME280;57850;52.922;6.256;2023-03-31T02:34:31;100071.88;;;11.85;100.00
12468;BME280;57850;52.922;6.256;2023-03-31T02:36:58;100041.38;;;12.01;100.00
12468;BME280;57850;52.922;6.256;2023-03-31T02:39:29;100047.50;;;12.00;100.00
12468;BME280;57850;52.922;6.256;2023-03-31T02:41:58;100048.34;;;12.00;100.00
12468;BME280;57850;52.922;6.256;2023-03-31T02:44:28;100024.59;;;12.05;100.00
12468;BME280;57850;52.922;6.256;2023-03-31T02:46:54;100026.13;;;11.93;100.00
12468;BME280;57850;52.922;6.256;2023-03-31T02:49:21;100007.66;;;11.96;100.00
12468;BME280;57850;52.922;6.256;2023-03-31T02:52:14;100000.13;;;12.06;100.00
12468;BME280;57850;52.922;6.256;2023-03-31T02:55:09;99983.75;;;12.18;100.00
12468;BME280;57850;52.922;6.256;2023-03-31T02:57:56;100007.47;;;11.99;100.00
12468;BME280;57850;52.922;6.256;2023-03-31T03:00:39;99978.78;;;11.98;100.00
12468;BME280;57850;52.922;6.256;2023-03-31T03:03:19;99959.63;;;12.13;100.00
12468;BME280;57850;52.922;6.256;2023-03-31T03:05:57;99954.66;;;12.08;100.00
12468;BME280;57850;52.922;6.256;2023-03-31T03:08:30;99936.00;;;12.14;100.00
12468;BME280;57850;52.922;6.256;2023-03-31T03:11:05;99923.25;;;12.24;100.00
12468;BME280;57850;52.922;6.256;2023-03-31T03:13:39;99918.44;;;12.16;100.00
12468;BME280;57850;52.922;6.256;2023-03-31T03:16:14;99905.72;;;12.10;100.00
12468;BME280;57850;52.922;6.256;2023-03-31T03:18:44;99884.88;;;12.24;100.00
12468;BME280;57850;52.922;6.256;2023-03-31T03:21:13;99887.00;;;12.18;100.00
12468;BME280;57850;52.922;6.256;2023-03-31T03:23:40;99872.97;;;12.19;100.00
12468;BME280;57850;52.922;6.256;2023-03-31T03:26:07;99853.69;;;12.35;100.00
12468;BME280;57850;52.922;6.256;2023-03-31T03:28:34;99856.72;;;12.28;100.00
12468;BME280;57850;52.922;6.256;2023-03-31T03:31:00;99842.06;;;12.25;100.00
12468;BME280;57850;52.922;6.256;2023-03-31T03:33:28;99830.31;;;12.18;100.00
12468;BME280;57850;52.922;6.256;2023-03-31T03:35:55;99802.22;;;12.36;100.00
12468;BME280;57850;52.922;6.256;2023-03-31T03:38:21;99783.31;;;12.31;100.00
12468;BME280;57850;52.922;6.256;2023-03-31T03:40:52;99756.44;;;12.15;100.00
12468;BME280;57850;52.922;6.256;2023-03-31T03:43:18;99708.59;;;11.99;100.00
12468;BME280;57850;52.922;6.256;2023-03-31T03:45:46;99633.91;;;11.95;100.00
12468;BME280;57850;52.922;6.256;2023-03-31T03:48:13;99595.81;;;11.91;100.00
12468;BME280;57850;52.922;6.256;2023-03-31T03:50:41;99526.34;;;12.01;100.00
12468;BME280;57850;52.922;6.256;2023-03-31T03:53:08;99464.44;;;12.01;100.00
12468;BME280;57850;52.922;6.256;2023-03-31T03:55:35;99401.75;;;12.14;100.00
12468;BME280;57850;52.922;6.256;2023-03-31T03:58:01;99369.72;;;12.10;100.00
12468;BME280;57850;52.922;6.256;2023-03-31T04:00:28;99339.50;;;12.19;100.00
12468;BME280;57850;52.922;6.256;2023-03-31T04:02:55;99318.81;;;12.28;100.00
12468;BME280;57850;52.922;6.256;2023-03-31T04:05:21;99321.00;;;12.34;100.00
12468;BME280;57850;52.922;6.256;2023-03-31T04:07:49;99316.75;;;12.46;100.00
12468;BME280;57850;52.922;6.256;2023-03-31T04:10:16;99319.66;;;12.42;100.00
12468;BME280;57850;52.922;6.256;2023-03-31T04:12:42;99344.97;;;12.28;100.00
12468;BME280;57850;52.922;6.256;2023-03-31T04:15:10;99303.25;;;12.40;100.00
12468;BME280;57850;52.922;6.256;2023-03-31T04:17:36;99307.13;;;12.21;100.00
12468;BME280;57850;52.922;6.256;2023-03-31T04:20:05;99295.59;;;12.11;100.00
12468;BME280;57850;52.922;6.256;2023-03-31T04:22:34;99243.19;;;12.25;100.00
12468;BME280;57850;52.922;6.256;2023-03-31T04:25:07;99236.81;;;12.29;100.00
12468;BME280;57850;52.922;6.256;2023-03-31T04:27:41;99224.16;;;12.23;100.00
12468;BME280;57850;52.922;6.256;2023-03-31T04:30:12;99227.28;;;12.28;100.00
12468;BME280;57850;52.922;6.256;2023-03-31T04:32:38;99203.75;;;12.28;100.00
12468;BME280;57850;52.922;6.256;2023-03-31T04:35:05;99198.22;;;12.20;100.00
12468;BME280;57850;52.922;6.256;2023-03-31T04:37:32;99182.59;;;12.31;100.00
12468;BME280;57850;52.922;6.256;2023-03-31T04:40:00;99191.63;;;12.27;100.00
12468;BME280;57850;52.922;6.256;2023-03-31T04:42:32;99158.53;;;12.39;100.00
12468;BME280;57850;52.922;6.256;2023-03-31T04:44:59;99178.75;;;12.37;100.00
12468;BME280;57850;52.922;6.256;2023-03-31T04:47:25;99179.56;;;12.38;100.00
12468;BME280;57850;52.922;6.256;2023-03-31T04:49:52;99165.34;;;12.42;100.00
12468;BME280;57850;52.922;6.256;2023-03-31T04:52:18;99163.13;;;12.48;100.00
12468;BME280;57850;52.922;6.256;2023-03-31T04:54:45;99169.88;;;12.27;100.00
12468;BME280;57850;52.922;6.256;2023-03-31T04:57:12;99144.75;;;12.37;100.00
12468;BME280;57850;52.922;6.256;2023-03-31T04:59:40;99119.34;;;12.26;100.00
12468;BME280;57850;52.922;6.256;2023-03-31T05:02:07;99120.44;;;12.48;100.00
12468;BME280;57850;52.922;6.256;2023-03-31T05:04:33;99113.16;;;12.40;100.00
12468;BME280;57850;52.922;6.256;2023-03-31T05:07:00;99103.47;;;12.17;100.00
12468;BME280;57850;52.922;6.256;2023-03-31T05:09:26;99078.19;;;12.41;100.00
12468;BME280;57850;52.922;6.256;2023-03-31T05:11:53;99067.09;;;12.38;100.00
12468;BME280;57850;52.922;6.256;2023-03-31T05:14:20;99068.63;;;12.16;100.00
12468;BME280;57850;52.922;6.256;2023-03-31T05:16:47;99031.88;;;12.30;100.00
12468;BME280;57850;52.922;6.256;2023-03-31T05:19:14;99043.38;;;12.28;100.00
12468;BME280;57850;52.922;6.256;2023-03-31T05:21:42;99054.09;;;12.12;100.00
12468;BME280;57850;52.922;6.256;2023-03-31T05:24:09;99041.81;;;12.02;100.00
12468;BME280;57850;52.922;6.256;2023-03-31T05:26:36;99007.13;;;12.23;100.00
12468;BME280;57850;52.922;6.256;2023-03-31T05:29:04;99007.84;;;12.02;100.00
12468;BME280;57850;52.922;6.256;2023-03-31T05:31:30;98984.94;;;12.05;100.00
12468;BME280;57850;52.922;6.256;2023-03-31T05:33:58;98973.50;;;12.06;100.00
12468;BME280;57850;52.922;6.256;2023-03-31T05:36:27;98951.59;;;11.96;100.00
12468;BME280;57850;52.922;6.256;2023-03-31T05:38:54;98915.94;;;11.95;100.00
12468;BME280;57850;52.922;6.256;2023-03-31T05:41:20;98880.38;;;12.05;100.00
12468;BME280;57850;52.922;6.256;2023-03-31T05:43:47;98860.31;;;12.17;100.00
12468;BME280;57850;52.922;6.256;2023-03-31T05:46:14;98841.88;;;12.07;100.00
12468;BME280;57850;52.922;6.256;2023-03-31T05:48:42;98807.19;;;12.05;100.00
12468;BME280;57850;52.922;6.256;2023-03-31T05:51:10;98791.50;;;12.05;100.00
12468;BME280;57850;52.922;6.256;2023-03-31T05:53:37;98783.38;;;11.97;100.00
12468;BME280;57850;52.922;6.256;2023-03-31T05:56:05;98731.50;;;12.15;100.00
12468;BME280;57850;52.922;6.256;2023-03-31T05:58:33;98739.72;;;12.21;100.00
12468;BME280;57850;52.922;6.256;2023-03-31T06:01:04;98761.31;;;12.12;100.00
12468;BME280;57850;52.922;6.256;2023-03-31T06:03:32;98750.97;;;12.22;100.00
12468;BME280;57850;52.922;6.256;2023-03-31T06:05:58;98737.22;;;12.20;100.00
12468;BME280;57850;52.922;6.256;2023-03-31T06:08:27;98737.69;;;12.14;100.00
12468;BME280;57850;52.922;6.256;2023-03-31T06:10:54;98751.69;;;12.02;100.00
12468;BME280;57850;52.922;6.256;2023-03-31T06:13:21;98746.94;;;12.07;100.00
12468;BME280;57850;52.922;6.256;2023-03-31T06:15:54;98753.47;;;12.12;100.00
12468;BME280;57850;52.922;6.256;2023-03-31T06:18:21;98781.31;;;11.78;100.00
12468;BME280;57850;52.922;6.256;2023-03-31T06:20:50;98746.03;;;11.84;100.00
12468;BME280;57850;52.922;6.256;2023-03-31T06:23:16;98726.38;;;12.13;100.00
12468;BME280;57850;52.922;6.256;2023-03-31T06:25:44;98735.75;;;12.16;100.00
12468;BME280;57850;52.922;6.256;2023-03-31T06:28:11;98747.06;;;12.05;100.00
12468;BME280;57850;52.922;6.256;2023-03-31T06:30:38;98746.59;;;12.11;100.00
12468;BME280;57850;52.922;6.256;2023-03-31T06:33:04;98750.28;;;12.20;100.00
12468;BME280;57850;52.922;6.256;2023-03-31T06:35:31;98742.66;;;12.06;100.00
12468;BME280;57850;52.922;6.256;2023-03-31T06:37:58;98758.25;;;12.41;100.00
12468;BME280;57850;52.922;6.256;2023-03-31T06:40:24;98784.41;;;12.63;100.00
12468;BME280;57850;52.922;6.256;2023-03-31T06:42:52;98832.34;;;12.63;100.00
12468;BME280;57850;52.922;6.256;2023-03-31T06:45:19;98847.44;;;12.60;100.00
12468;BME280;57850;52.922;6.256;2023-03-31T06:47:46;98862.44;;;12.47;100.00
12468;BME280;57850;52.922;6.256;2023-03-31T06:50:13;98817.13;;;12.57;100.00
12468;BME280;57850;52.922;6.256;2023-03-31T06:52:39;98822.97;;;12.83;100.00
12468;BME280;57850;52.922;6.256;2023-03-31T06:55:07;98864.22;;;12.57;100.00
12468;BME280;57850;52.922;6.256;2023-03-31T06:57:34;98836.53;;;12.77;100.00
12468;BME280;57850;52.922;6.256;2023-03-31T07:00:03;98857.56;;;12.64;100.00
12468;BME280;57850;52.922;6.256;2023-03-31T07:02:31;98849.34;;;12.47;100.00
12468;BME280;57850;52.922;6.256;2023-03-31T07:04:58;98804.50;;;12.84;100.00
12468;BME280;57850;52.922;6.256;2023-03-31T07:07:25;98841.97;;;12.52;100.00
12468;BME280;57850;52.922;6.256;2023-03-31T07:09:52;98811.19;;;12.77;100.00
12468;BME280;57850;52.922;6.256;2023-03-31T07:12:18;98823.78;;;12.61;100.00
12468;BME280;57850;52.922;6.256;2023-03-31T07:14:45;98822.00;;;12.73;100.00
12468;BME280;57850;52.922;6.256;2023-03-31T07:17:13;98809.16;;;12.70;100.00
12468;BME280;57850;52.922;6.256;2023-03-31T07:19:43;98806.56;;;12.81;100.00
12468;BME280;57850;52.922;6.256;2023-03-31T07:22:12;98830.44;;;12.87;100.00
12468;BME280;57850;52.922;6.256;2023-03-31T07:24:39;98825.81;;;12.69;100.00
12468;BME280;57850;52.922;6.256;2023-03-31T07:27:05;98822.47;;;12.67;100.00
12468;BME280;57850;52.922;6.256;2023-03-31T07:29:38;98815.81;;;12.63;100.00
12468;BME280;57850;52.922;6.256;2023-03-31T07:32:04;98800.38;;;12.71;100.00
12468;BME280;57850;52.922;6.256;2023-03-31T07:34:32;98767.41;;;12.57;100.00
12468;BME280;57850;52.922;6.256;2023-03-31T07:36:59;98743.75;;;12.70;100.00
12468;BME280;57850;52.922;6.256;2023-03-31T07:39:26;98737.44;;;12.72;100.00
12468;BME280;57850;52.922;6.256;2023-03-31T07:41:52;98726.75;;;12.53;100.00
12468;BME280;57850;52.922;6.256;2023-03-31T07:44:19;98743.50;;;12.51;100.00
12468;BME280;57850;52.922;6.256;2023-03-31T07:46:47;98694.66;;;12.51;100.00
12468;BME280;57850;52.922;6.256;2023-03-31T07:49:14;98671.00;;;12.53;100.00
12468;BME280;57850;52.922;6.256;2023-03-31T07:51:42;98662.28;;;12.74;100.00
12468;BME280;57850;52.922;6.256;2023-03-31T07:54:09;98670.13;;;12.63;100.00
12468;BME280;57850;52.922;6.256;2023-03-31T07:56:35;98644.56;;;12.67;100.00
12468;BME280;57850;52.922;6.256;2023-03-31T07:59:02;98635.03;;;12.66;100.00
12468;BME280;57850;52.922;6.256;2023-03-31T08:01:29;98630.88;;;12.74;100.00
12468;BME280;57850;52.922;6.256;2023-03-31T08:03:56;98639.47;;;12.65;100.00
12468;BME280;57850;52.922;6.256;2023-03-31T08:06:24;98618.34;;;12.89;100.00
12468;BME280;57850;52.922;6.256;2023-03-31T08:08:52;98635.13;;;12.86;100.00
12468;BME280;57850;52.922;6.256;2023-03-31T08:11:19;98648.47;;;12.72;100.00
12468;BME280;57850;52.922;6.256;2023-03-31T08:13:47;98624.06;;;12.83;100.00
12468;BME280;57850;52.922;6.256;2023-03-31T08:16:13;98653.13;;;12.69;100.00
12468;BME280;57850;52.922;6.256;2023-03-31T08:18:40;98639.34;;;12.67;100.00
12468;BME280;57850;52.922;6.256;2023-03-31T08:21:07;98616.31;;;12.81;100.00
12468;BME280;57850;52.922;6.256;2023-03-31T08:23:34;98650.97;;;12.63;100.00
12468;BME280;57850;52.922;6.256;2023-03-31T08:26:11;98630.78;;;12.65;100.00
12468;BME280;57850;52.922;6.256;2023-03-31T08:28:38;98618.69;;;12.84;100.00
12468;BME280;57850;52.922;6.256;2023-03-31T08:31:06;98632.00;;;12.93;100.00
12468;BME280;57850;52.922;6.256;2023-03-31T08:33:33;98632.03;;;12.81;100.00
12468;BME280;57850;52.922;6.256;2023-03-31T08:36:03;98619.03;;;12.91;100.00
12468;BME280;57850;52.922;6.256;2023-03-31T08:38:32;98635.13;;;12.75;100.00
12468;BME280;57850;52.922;6.256;2023-03-31T08:41:03;98638.81;;;12.84;100.00
12468;BME280;57850;52.922;6.256;2023-03-31T08:43:33;98654.19;;;12.77;100.00
12468;BME280;57850;52.922;6.256;2023-03-31T08:46:03;98647.22;;;12.87;100.00
12468;BME280;57850;52.922;6.256;2023-03-31T08:48:33;98665.50;;;12.78;100.00
12468;BME280;57850;52.922;6.256;2023-03-31T08:51:08;98661.97;;;13.00;100.00
12468;BME280;57850;52.922;6.256;2023-03-31T08:53:41;98667.19;;;13.11;100.00
12468;BME280;57850;52.922;6.256;2023-03-31T08:56:14;98688.66;;;13.25;100.00
12468;BME280;57850;52.922;6.256;2023-03-31T08:58:45;98702.09;;;13.32;100.00
12468;BME280;57850;52.922;6.256;2023-03-31T09:01:21;98720.69;;;13.29;100.00
12468;BME280;57850;52.922;6.256;2023-03-31T09:04:03;98726.31;;;13.13;100.00
12468;BME280;57850;52.922;6.256;2023-03-31T09:06:35;98711.19;;;13.17;100.00
12468;BME280;57850;52.922;6.256;2023-03-31T09:09:07;98701.84;;;13.35;100.00
12468;BME280;57850;52.922;6.256;2023-03-31T09:11:38;98732.50;;;13.23;100.00
12468;BME280;57850;52.922;6.256;2023-03-31T09:14:20;98724.22;;;13.39;100.00
12468;BME280;57850;52.922;6.256;2023-03-31T09:16:57;98764.16;;;13.20;100.00
12468;BME280;57850;52.922;6.256;2023-03-31T09:19:34;98769.06;;;12.92;100.00
12468;BME280;57850;52.922;6.256;2023-03-31T09:22:02;98741.81;;;12.94;100.00
12468;BME280;57850;52.922;6.256;2023-03-31T09:24:34;98719.91;;;13.17;100.00
12468;BME280;57850;52.922;6.256;2023-03-31T09:27:05;98707.41;;;13.10;100.00
12468;BME280;57850;52.922;6.256;2023-03-31T09:29:41;98680.63;;;13.17;100.00
12468;BME280;57850;52.922;6.256;2023-03-31T09:32:13;98706.59;;;12.98;100.00
12468;BME280;57850;52.922;6.256;2023-03-31T09:34:40;98664.91;;;13.17;100.00
12468;BME280;57850;52.922;6.256;2023-03-31T09:37:08;98676.72;;;13.12;100.00
12468;BME280;57850;52.922;6.256;2023-03-31T09:39:35;98682.59;;;12.82;100.00
12468;BME280;57850;52.922;6.256;2023-03-31T09:42:03;98609.28;;;12.93;100.00
12468;BME280;57850;52.922;6.256;2023-03-31T09:44:37;98579.59;;;13.15;100.00
12468;BME280;57850;52.922;6.256;2023-03-31T09:47:05;98617.59;;;13.09;100.00
12468;BME280;57850;52.922;6.256;2023-03-31T09:49:34;98585.66;;;13.15;100.00
12468;BME280;57850;52.922;6.256;2023-03-31T09:52:04;98568.72;;;13.19;100.00
12468;BME280;57850;52.922;6.256;2023-03-31T09:54:36;98552.22;;;13.28;100.00
12468;BME280;57850;52.922;6.256;2023-03-31T09:57:13;98500.28;;;13.64;100.00
12468;BME280;57850;52.922;6.256;2023-03-31T09:59:41;98537.34;;;13.50;100.00
12468;BME280;57850;52.922;6.256;2023-03-31T10:02:32;98535.06;;;13.66;100.00
12468;BME280;57850;52.922;6.256;2023-03-31T10:05:00;98548.34;;;13.74;100.00
12468;BME280;57850;52.922;6.256;2023-03-31T10:07:27;98548.69;;;13.60;100.00
12468;BME280;57850;52.922;6.256;2023-03-31T10:09:54;98570.63;;;13.89;100.00
12468;BME280;57850;52.922;6.256;2023-03-31T10:12:27;98577.25;;;13.63;100.00
12468;BME280;57850;52.922;6.256;2023-03-31T10:15:13;98558.91;;;13.93;100.00
12468;BME280;57850;52.922;6.256;2023-03-31T10:17:43;98601.97;;;13.90;100.00
12468;BME280;57850;52.922;6.256;2023-03-31T10:20:20;98638.78;;;13.89;100.00
12468;BME280;57850;52.922;6.256;2023-03-31T10:22:46;98602.69;;;14.42;100.00
12468;BME280;57850;52.922;6.256;2023-03-31T10:25:16;98668.97;;;14.44;100.00
12468;BME280;57850;52.922;6.256;2023-03-31T10:27:46;98648.50;;;14.68;100.00
12468;BME280;57850;52.922;6.256;2023-03-31T10:30:20;98726.47;;;14.26;100.00
12468;BME280;57850;52.922;6.256;2023-03-31T10:32:48;98735.88;;;14.50;100.00
12468;BME280;57850;52.922;6.256;2023-03-31T10:35:22;98777.59;;;14.53;100.00
12468;BME280;57850;52.922;6.256;2023-03-31T10:37:54;98828.16;;;14.55;100.00
12468;BME280;57850;52.922;6.256;2023-03-31T10:40:22;98839.19;;;15.09;100.00
12468;BME280;57850;52.922;6.256;2023-03-31T10:42:58;98849.56;;;15.50;100.00
12468;BME280;57850;52.922;6.256;2023-03-31T10:45:29;98924.19;;;15.38;100.00
12468;BME280;57850;52.922;6.256;2023-03-31T10:47:58;98952.81;;;15.41;100.00
12468;BME280;57850;52.922;6.256;2023-03-31T10:50:27;98982.91;;;15.48;100.00
12468;BME280;57850;52.922;6.256;2023-03-31T10:53:01;99029.66;;;15.03;100.00
12468;BME280;57850;52.922;6.256;2023-03-31T10:55:34;99020.22;;;15.01;100.00
12468;BME280;57850;52.922;6.256;2023-03-31T10:58:06;98991.78;;;14.85;100.00
12468;BME280;57850;52.922;6.256;2023-03-31T11:00:43;98970.38;;;14.69;100.00
12468;BME280;57850;52.922;6.256;2023-03-31T11:03:36;98939.94;;;14.78;100.00
12468;BME280;57850;52.922;6.256;2023-03-31T11:06:09;98946.47;;;14.31;100.00
12468;BME280;57850;52.922;6.256;2023-03-31T11:08:46;98932.31;;;14.75;100.00
12468;BME280;57850;52.922;6.256;2023-03-31T11:11:44;99005.13;;;14.30;100.00
12468;BME280;57850;52.922;6.256;2023-03-31T11:14:19;98949.03;;;14.74;100.00
12468;BME280;57850;52.922;6.256;2023-03-31T11:16:55;98950.69;;;14.75;100.00
12468;BME280;57850;52.922;6.256;2023-03-31T11:19:35;98882.06;;;15.49;100.00
12468;BME280;57850;52.922;6.256;2023-03-31T11:22:08;98920.91;;;15.86;100.00
12468;BME280;57850;52.922;6.256;2023-03-31T11:25:03;98983.19;;;15.85;100.00
12468;BME280;57850;52.922;6.256;2023-03-31T11:27:42;99062.72;;;15.68;100.00
12468;BME280;57850;52.922;6.256;2023-03-31T11:30:19;99081.44;;;15.33;100.00
12468;BME280;57850;52.922;6.256;2023-03-31T11:33:00;99067.41;;;15.02;100.00
12468;BME280;57850;52.922;6.256;2023-03-31T11:35:48;99029.09;;;15.21;100.00
12468;BME280;57850;52.922;6.256;2023-03-31T11:38:47;99029.72;;;14.92;100.00
12468;BME280;57850;52.922;6.256;2023-03-31T11:41:19;99068.47;;;14.36;100.00
12468;BME280;57850;52.922;6.256;2023-03-31T11:43:48;99013.53;;;14.56;100.00
12468;BME280;57850;52.922;6.256;2023-03-31T11:46:18;98997.72;;;14.67;100.00
12468;BME280;57850;52.922;6.256;2023-03-31T11:48:51;98986.66;;;14.63;100.00
12468;BME280;57850;52.922;6.256;2023-03-31T11:51:24;98953.88;;;14.58;100.00
12468;BME280;57850;52.922;6.256;2023-03-31T11:53:53;98939.09;;;14.77;100.00
12468;BME280;57850;52.922;6.256;2023-03-31T11:56:23;98927.19;;;14.94;100.00
12468;BME280;57850;52.922;6.256;2023-03-31T11:58:53;98946.75;;;14.69;100.00
12468;BME280;57850;52.922;6.256;2023-03-31T12:01:26;98948.56;;;14.48;100.00
12468;BME280;57850;52.922;6.256;2023-03-31T12:04:00;98935.09;;;15.03;100.00
12468;BME280;57850;52.922;6.256;2023-03-31T12:06:32;98952.25;;;15.08;100.00
12468;BME280;57850;52.922;6.256;2023-03-31T12:09:06;98969.22;;;15.24;100.00
12468;BME280;57850;52.922;6.256;2023-03-31T12:11:37;99003.63;;;15.00;100.00
12468;BME280;57850;52.922;6.256;2023-03-31T12:14:20;99010.06;;;15.08;100.00
12468;BME280;57850;52.922;6.256;2023-03-31T12:16:51;98962.06;;;15.06;100.00
12468;BME280;57850;52.922;6.256;2023-03-31T12:19:24;98927.94;;;14.85;100.00
12468;BME280;57850;52.922;6.256;2023-03-31T12:21:55;98904.59;;;14.61;100.00
12468;BME280;57850;52.922;6.256;2023-03-31T12:24:23;98866.72;;;14.84;100.00
12468;BME280;57850;52.922;6.256;2023-03-31T12:27:00;98862.84;;;15.09;100.00
12468;BME280;57850;52.922;6.256;2023-03-31T12:29:31;98830.25;;;15.21;100.00
12468;BME280;57850;52.922;6.256;2023-03-31T12:32:02;98851.94;;;15.23;100.00
12468;BME280;57850;52.922;6.256;2023-03-31T12:34:36;98810.97;;;15.80;100.00
12468;BME280;57850;52.922;6.256;2023-03-31T12:40:17;98899.81;;;15.67;100.00
12468;BME280;57850;52.922;6.256;2023-03-31T12:45:42;98883.47;;;15.53;100.00
12468;BME280;57850;52.922;6.256;2023-03-31T12:48:31;98898.69;;;15.29;100.00
12468;BME280;57850;52.922;6.256;2023-03-31T12:51:29;98954.78;;;14.68;100.00
12468;BME280;57850;52.922;6.256;2023-03-31T12:54:13;98869.09;;;14.67;100.00
12468;BME280;57850;52.922;6.256;2023-03-31T12:57:02;98842.69;;;14.89;100.00
12468;BME280;57850;52.922;6.256;2023-03-31T12:59:31;98795.22;;;15.11;100.00
12468;BME280;57850;52.922;6.256;2023-03-31T13:02:21;98811.41;;;15.16;100.00
12468;BME280;57850;52.922;6.256;2023-03-31T13:04:48;98844.94;;;14.93;100.00
12468;BME280;57850;52.922;6.256;2023-03-31T13:07:40;98786.66;;;15.09;100.00
12468;BME280;57850;52.922;6.256;2023-03-31T13:10:50;98811.59;;;14.84;100.00
12468;BME280;57850;52.922;6.256;2023-03-31T13:13:20;98881.72;;;14.00;100.00
12468;BME280;57850;52.922;6.256;2023-03-31T13:15:49;98919.69;;;13.84;100.00
12468;BME280;57850;52.922;6.256;2023-03-31T13:18:18;98915.03;;;13.77;100.00
12468;BME280;57850;52.922;6.256;2023-03-31T13:20:46;98895.03;;;14.08;100.00